sensor_id;sensor_type;location;lat;lon;timestamp;pressure;altitude;pressure_sealevel;temperature;humidity
64698;BME280;51124;53.394;-6.294;2024-01-15T00:01:16;100879.23;;;15.14;12.25
64698;BME280;51124;53.394;-6.294;2024-01-15T00:03:44;100874.97;;;15.43;12.01
64698;BME280;51124;53.394;-6.294;2024-01-15T00:06:11;100870.98;;;16.07;11.67
64698;BME280;51124;53.394;-6.294;2024-01-15T00:08:39;100866.38;;;15.95;11.56
64698;BME280;51124;53.394;-6.294;2024-01-15T00:11:06;100866.23;;;15.04;11.56
64698;BME280;51124;53.394;-6.294;2024-01-15T00:13:34;100862.99;;;14.50;11.54
64698;BME280;51124;53.394;-6.294;2024-01-15T00:16:01;100863.35;;;14.52;11.25
64698;BME280;51124;53.394;-6.294;2024-01-15T00:18:28;100860.15;;;14.37;11.17
64698;BME280;51124;53.394;-6.294;2024-01-15T00:20:56;100857.50;;;14.40;10.66
64698;BME280;51124;53.394;-6.294;2024-01-15T00:23:23;100851.58;;;15.30;10.93
64698;BME280;51124;53.394;-6.294;2024-01-15T00:25:53;100850.00;;;14.50;10.69
64698;BME280;51124;53.394;-6.294;2024-01-15T00:28:20;100852.16;;;14.48;10.78
64698;BME280;51124;53.394;-6.294;2024-01-15T00:30:47;100848.78;;;14.41;10.69
64698;BME280;51124;53.394;-6.294;2024-01-15T00:33:15;100851.66;;;14.49;10.71
64698;BME280;51124;53.394;-6.294;2024-01-15T00:35:42;100848.02;;;14.76;10.56
64698;BME280;51124;53.394;-6.294;2024-01-15T00:38:10;100853.89;;;14.70;10.53
64698;BME280;51124;53.394;-6.294;2024-01-15T00:40:37;100853.12;;;14.78;10.57
64698;BME280;51124;53.394;-6.294;2024-01-15T00:43:05;100844.65;;;14.59;10.29
64698;BME280;51124;53.394;-6.294;2024-01-15T00:45:32;100842.50;;;14.67;10.31
64698;BME280;51124;53.394;-6.294;2024-01-15T00:48:00;100839.83;;;14.39;10.58
64698;BME280;51124;53.394;-6.294;2024-01-15T00:50:28;100840.47;;;13.94;10.67
64698;BME280;51124;53.394;-6.294;2024-01-15T00:52:56;100833.31;;;13.94;10.62
64698;BME280;51124;53.394;-6.294;2024-01-15T00:55:23;100837.10;;;13.99;10.69
64698;BME280;51124;53.394;-6.294;2024-01-15T00:57:51;100841.43;;;13.79;10.54
64698;BME280;51124;53.394;-6.294;2024-01-15T01:00:18;100836.21;;;14.24;10.60
64698;BME280;51124;53.394;-6.294;2024-01-15T01:02:46;100831.96;;;13.98;10.36
64698;BME280;51124;53.394;-6.294;2024-01-15T01:05:13;100827.15;;;13.53;10.47
64698;BME280;51124;53.394;-6.294;2024-01-15T01:07:41;100820.74;;;13.80;10.50
64698;BME280;51124;53.394;-6.294;2024-01-15T01:10:08;100822.89;;;13.75;10.38
64698;BME280;51124;53.394;-6.294;2024-01-15T01:12:36;100809.42;;;14.59;10.00
64698;BME280;51124;53.394;-6.294;2024-01-15T01:15:04;100811.29;;;13.86;10.19
64698;BME280;51124;53.394;-6.294;2024-01-15T01:17:31;100808.59;;;14.38;10.49
64698;BME280;51124;53.394;-6.294;2024-01-15T01:19:59;100808.34;;;13.99;10.54
64698;BME280;51124;53.394;-6.294;2024-01-15T01:22:26;100816.54;;;13.72;10.24
64698;BME280;51124;53.394;-6.294;2024-01-15T01:24:54;100815.17;;;13.71;10.54
64698;BME280;51124;53.394;-6.294;2024-01-15T01:27:21;100809.91;;;14.51;10.38
64698;BME280;51124;53.394;-6.294;2024-01-15T01:29:48;100809.81;;;14.20;10.62
64698;BME280;51124;53.394;-6.294;2024-01-15T01:32:16;100813.37;;;13.47;10.50
64698;BME280;51124;53.394;-6.294;2024-01-15T01:34:43;100808.53;;;13.83;10.44
64698;BME280;51124;53.394;-6.294;2024-01-15T01:37:11;100802.63;;;14.74;10.26
64698;BME280;51124;53.394;-6.294;2024-01-15T01:39:39;100802.62;;;13.01;10.70
64698;BME280;51124;53.394;-6.294;2024-01-15T01:42:07;100799.66;;;14.11;10.36
64698;BME280;51124;53.394;-6.294;2024-01-15T01:44:35;100803.14;;;13.45;10.70
64698;BME280;51124;53.394;-6.294;2024-01-15T01:47:02;100808.08;;;13.68;10.62
64698;BME280;51124;53.394;-6.294;2024-01-15T01:49:31;100807.55;;;14.05;10.30
64698;BME280;51124;53.394;-6.294;2024-01-15T01:51:59;100809.74;;;13.48;10.49
64698;BME280;51124;53.394;-6.294;2024-01-15T01:54:29;100816.26;;;13.63;10.56
64698;BME280;51124;53.394;-6.294;2024-01-15T01:56:57;100806.78;;;13.68;10.29
64698;BME280;51124;53.394;-6.294;2024-01-15T01:59:26;100805.28;;;15.98;10.63
64698;BME280;51124;53.394;-6.294;2024-01-15T02:01:54;100804.02;;;16.71;10.88
64698;BME280;51124;53.394;-6.294;2024-01-15T02:04:22;100804.63;;;15.08;11.17
64698;BME280;51124;53.394;-6.294;2024-01-15T02:06:51;100805.99;;;14.76;11.26
64698;BME280;51124;53.394;-6.294;2024-01-15T02:09:19;100800.33;;;17.28;11.23
64698;BME280;51124;53.394;-6.294;2024-01-15T02:11:48;100803.98;;;16.77;11.79
64698;BME280;51124;53.394;-6.294;2024-01-15T02:14:16;100798.73;;;16.72;12.18
64698;BME280;51124;53.394;-6.294;2024-01-15T02:16:44;100798.36;;;17.05;12.24
64698;BME280;51124;53.394;-6.294;2024-01-15T02:19:17;100794.26;;;16.17;12.48
64698;BME280;51124;53.394;-6.294;2024-01-15T02:21:44;100799.47;;;16.44;12.53
64698;BME280;51124;53.394;-6.294;2024-01-15T02:24:12;100799.03;;;15.96;12.48
64698;BME280;51124;53.394;-6.294;2024-01-15T02:26:40;100795.95;;;16.36;12.68
64698;BME280;51124;53.394;-6.294;2024-01-15T02:29:09;100798.32;;;16.20;12.54
64698;BME280;51124;53.394;-6.294;2024-01-15T02:31:37;100804.53;;;15.84;12.94
64698;BME280;51124;53.394;-6.294;2024-01-15T02:34:05;100799.96;;;16.18;12.89
64698;BME280;51124;53.394;-6.294;2024-01-15T02:36:33;100797.56;;;16.13;12.95
64698;BME280;51124;53.394;-6.294;2024-01-15T02:39:01;100792.40;;;15.59;12.94
64698;BME280;51124;53.394;-6.294;2024-01-15T02:41:28;100799.70;;;16.15;12.74
64698;BME280;51124;53.394;-6.294;2024-01-15T02:43:56;100790.81;;;16.58;12.64
64698;BME280;51124;53.394;-6.294;2024-01-15T02:46:23;100791.63;;;16.08;12.82
64698;BME280;51124;53.394;-6.294;2024-01-15T02:48:51;100789.50;;;16.37;12.93
64698;BME280;51124;53.394;-6.294;2024-01-15T02:51:19;100791.40;;;15.34;13.01
64698;BME280;51124;53.394;-6.294;2024-01-15T02:53:48;100795.48;;;15.74;12.82
64698;BME280;51124;53.394;-6.294;2024-01-15T02:56:16;100788.85;;;16.20;12.82
64698;BME280;51124;53.394;-6.294;2024-01-15T02:58:44;100786.27;;;15.54;12.70
64698;BME280;51124;53.394;-6.294;2024-01-15T03:01:11;100782.17;;;14.33;12.44
64698;BME280;51124;53.394;-6.294;2024-01-15T03:03:39;100783.27;;;13.56;12.37
64698;BME280;51124;53.394;-6.294;2024-01-15T03:06:07;100788.91;;;13.07;12.04
64698;BME280;51124;53.394;-6.294;2024-01-15T03:08:34;100789.74;;;13.77;11.68
64698;BME280;51124;53.394;-6.294;2024-01-15T03:11:01;100795.68;;;14.39;11.58
64698;BME280;51124;53.394;-6.294;2024-01-15T03:13:29;100800.15;;;12.44;11.57
64698;BME280;51124;53.394;-6.294;2024-01-15T03:15:57;100796.12;;;14.20;11.08
64698;BME280;51124;53.394;-6.294;2024-01-15T03:18:24;100799.55;;;13.92;11.00
64698;BME280;51124;53.394;-6.294;2024-01-15T03:20:52;100784.11;;;13.29;10.89
64698;BME280;51124;53.394;-6.294;2024-01-15T03:23:19;100786.91;;;13.41;10.96
64698;BME280;51124;53.394;-6.294;2024-01-15T03:25:46;100791.71;;;13.36;11.05
64698;BME280;51124;53.394;-6.294;2024-01-15T03:28:14;100791.95;;;13.02;11.09
64698;BME280;51124;53.394;-6.294;2024-01-15T03:30:41;100790.57;;;13.67;10.83
64698;BME280;51124;53.394;-6.294;2024-01-15T03:33:08;100786.37;;;13.63;10.74
64698;BME280;51124;53.394;-6.294;2024-01-15T03:35:36;100788.44;;;13.40;10.78
64698;BME280;51124;53.394;-6.294;2024-01-15T03:38:03;100781.29;;;13.23;10.52
64698;BME280;51124;53.394;-6.294;2024-01-15T03:40:30;100784.34;;;13.13;10.61
64698;BME280;51124;53.394;-6.294;2024-01-15T03:42:58;100782.02;;;13.22;10.51
64698;BME280;51124;53.394;-6.294;2024-01-15T03:45:25;100783.82;;;13.48;10.54
64698;BME280;51124;53.394;-6.294;2024-01-15T03:47:53;100783.47;;;12.82;10.38
64698;BME280;51124;53.394;-6.294;2024-01-15T03:50:20;100780.94;;;13.40;10.55
64698;BME280;51124;53.394;-6.294;2024-01-15T03:52:47;100780.46;;;13.17;10.36
64698;BME280;51124;53.394;-6.294;2024-01-15T03:55:15;100777.56;;;14.20;10.33
64698;BME280;51124;53.394;-6.294;2024-01-15T03:57:42;100782.02;;;12.82;10.56
64698;BME280;51124;53.394;-6.294;2024-01-15T04:00:10;100779.18;;;13.29;10.50
64698;BME280;51124;53.394;-6.294;2024-01-15T04:02:38;100775.31;;;12.94;10.41
64698;BME280;51124;53.394;-6.294;2024-01-15T04:05:06;100770.58;;;13.69;10.30
64698;BME280;51124;53.394;-6.294;2024-01-15T04:07:33;100766.42;;;13.91;10.33
64698;BME280;51124;53.394;-6.294;2024-01-15T04:10:01;100765.99;;;12.99;10.48
64698;BME280;51124;53.394;-6.294;2024-01-15T04:12:28;100765.88;;;12.15;10.31
64698;BME280;51124;53.394;-6.294;2024-01-15T04:14:56;100766.59;;;13.42;10.42
64698;BME280;51124;53.394;-6.294;2024-01-15T04:17:23;100759.89;;;12.98;10.54
64698;BME280;51124;53.394;-6.294;2024-01-15T04:19:50;100765.21;;;13.13;10.32
64698;BME280;51124;53.394;-6.294;2024-01-15T04:22:18;100766.22;;;13.35;10.33
64698;BME280;51124;53.394;-6.294;2024-01-15T04:24:45;100770.46;;;13.32;10.37
64698;BME280;51124;53.394;-6.294;2024-01-15T04:27:13;100764.74;;;13.55;10.36
64698;BME280;51124;53.394;-6.294;2024-01-15T04:29:41;100760.20;;;12.94;10.28
64698;BME280;51124;53.394;-6.294;2024-01-15T04:32:08;100760.15;;;13.03;10.52
64698;BME280;51124;53.394;-6.294;2024-01-15T04:34:36;100767.20;;;13.54;10.41
64698;BME280;51124;53.394;-6.294;2024-01-15T04:37:03;100780.05;;;13.79;10.51
64698;BME280;51124;53.394;-6.294;2024-01-15T04:39:31;100784.53;;;12.54;10.56
64698;BME280;51124;53.394;-6.294;2024-01-15T04:41:58;100790.35;;;13.05;10.38
64698;BME280;51124;53.394;-6.294;2024-01-15T04:44:26;100780.27;;;13.65;10.22
64698;BME280;51124;53.394;-6.294;2024-01-15T04:46:53;100774.37;;;14.22;10.38
64698;BME280;51124;53.394;-6.294;2024-01-15T04:49:21;100759.26;;;13.38;10.53
64698;BME280;51124;53.394;-6.294;2024-01-15T04:51:48;100761.72;;;12.15;10.63
64698;BME280;51124;53.394;-6.294;2024-01-15T04:54:15;100767.53;;;13.10;10.42
64698;BME280;51124;53.394;-6.294;2024-01-15T04:56:43;100775.75;;;12.91;10.52
64698;BME280;51124;53.394;-6.294;2024-01-15T04:59:10;100783.17;;;12.94;10.41
64698;BME280;51124;53.394;-6.294;2024-01-15T05:01:38;100782.73;;;13.86;10.23
64698;BME280;51124;53.394;-6.294;2024-01-15T05:04:05;100786.76;;;15.24;10.73
64698;BME280;51124;53.394;-6.294;2024-01-15T05:06:33;100787.65;;;14.20;11.09
64698;BME280;51124;53.394;-6.294;2024-01-15T05:09:00;100780.52;;;14.02;11.09
64698;BME280;51124;53.394;-6.294;2024-01-15T05:11:28;100777.06;;;16.64;10.96
64698;BME280;51124;53.394;-6.294;2024-01-15T05:13:55;100788.00;;;16.20;11.75
64698;BME280;51124;53.394;-6.294;2024-01-15T05:16:23;100788.07;;;16.20;11.82
64698;BME280;51124;53.394;-6.294;2024-01-15T05:18:51;100802.09;;;15.54;12.22
64698;BME280;51124;53.394;-6.294;2024-01-15T05:21:18;100811.94;;;16.09;12.28
64698;BME280;51124;53.394;-6.294;2024-01-15T05:23:46;100820.58;;;16.04;12.28
64698;BME280;51124;53.394;-6.294;2024-01-15T05:26:14;100817.97;;;15.42;12.53
64698;BME280;51124;53.394;-6.294;2024-01-15T05:28:43;100816.17;;;15.62;12.44
64698;BME280;51124;53.394;-6.294;2024-01-15T05:31:10;100821.79;;;15.07;12.49
64698;BME280;51124;53.394;-6.294;2024-01-15T05:33:38;100806.27;;;15.24;12.55
64698;BME280;51124;53.394;-6.294;2024-01-15T05:36:06;100798.29;;;15.27;12.46
64698;BME280;51124;53.394;-6.294;2024-01-15T05:38:34;100797.16;;;15.93;12.43
64698;BME280;51124;53.394;-6.294;2024-01-15T05:41:01;100795.74;;;15.49;12.59
64698;BME280;51124;53.394;-6.294;2024-01-15T05:43:29;100795.98;;;15.66;12.62
64698;BME280;51124;53.394;-6.294;2024-01-15T05:45:56;100802.36;;;15.61;12.66
64698;BME280;51124;53.394;-6.294;2024-01-15T05:48:24;100807.33;;;15.86;12.62
64698;BME280;51124;53.394;-6.294;2024-01-15T05:50:52;100820.21;;;16.27;12.51
64698;BME280;51124;53.394;-6.294;2024-01-15T05:53:19;100820.82;;;15.12;12.56
64698;BME280;51124;53.394;-6.294;2024-01-15T05:55:46;100818.50;;;15.67;12.62
64698;BME280;51124;53.394;-6.294;2024-01-15T05:58:14;100817.28;;;15.56;12.66
64698;BME280;51124;53.394;-6.294;2024-01-15T06:00:42;100814.05;;;15.09;12.69
64698;BME280;51124;53.394;-6.294;2024-01-15T06:03:09;100802.82;;;13.28;12.68
64698;BME280;51124;53.394;-6.294;2024-01-15T06:05:37;100799.50;;;12.69;12.12
64698;BME280;51124;53.394;-6.294;2024-01-15T06:08:04;100792.89;;;13.25;11.88
64698;BME280;51124;53.394;-6.294;2024-01-15T06:10:32;100790.33;;;12.87;11.61
64698;BME280;51124;53.394;-6.294;2024-01-15T06:12:59;100796.85;;;13.97;11.35
64698;BME280;51124;53.394;-6.294;2024-01-15T06:15:26;100802.80;;;13.52;11.40
64698;BME280;51124;53.394;-6.294;2024-01-15T06:17:54;100811.12;;;12.99;11.27
64698;BME280;51124;53.394;-6.294;2024-01-15T06:20:21;100818.14;;;12.53;11.27
64698;BME280;51124;53.394;-6.294;2024-01-15T06:22:48;100827.33;;;13.05;10.82
64698;BME280;51124;53.394;-6.294;2024-01-15T06:25:16;100830.78;;;11.92;11.16
64698;BME280;51124;53.394;-6.294;2024-01-15T06:27:43;100834.96;;;12.94;10.89
64698;BME280;51124;53.394;-6.294;2024-01-15T06:30:12;100835.20;;;13.73;10.71
64698;BME280;51124;53.394;-6.294;2024-01-15T06:32:39;100824.56;;;13.03;10.52
64698;BME280;51124;53.394;-6.294;2024-01-15T06:35:08;100817.12;;;13.60;10.50
64698;BME280;51124;53.394;-6.294;2024-01-15T06:37:35;100811.78;;;12.47;10.68
64698;BME280;51124;53.394;-6.294;2024-01-15T06:40:03;100809.97;;;13.29;10.36
64698;BME280;51124;53.394;-6.294;2024-01-15T06:42:30;100805.39;;;12.49;10.34
64698;BME280;51124;53.394;-6.294;2024-01-15T06:44:58;100805.84;;;12.76;10.43
64698;BME280;51124;53.394;-6.294;2024-01-15T06:47:25;100805.89;;;12.23;10.50
64698;BME280;51124;53.394;-6.294;2024-01-15T06:49:53;100815.59;;;12.29;10.48
64698;BME280;51124;53.394;-6.294;2024-01-15T06:52:20;100821.00;;;12.42;10.28
64698;BME280;51124;53.394;-6.294;2024-01-15T06:54:47;100823.48;;;12.69;10.18
64698;BME280;51124;53.394;-6.294;2024-01-15T06:57:15;100828.64;;;12.71;10.30
64698;BME280;51124;53.394;-6.294;2024-01-15T06:59:42;100827.81;;;12.43;10.37
64698;BME280;51124;53.394;-6.294;2024-01-15T07:02:10;100821.04;;;13.44;10.37
64698;BME280;51124;53.394;-6.294;2024-01-15T07:04:37;100822.34;;;12.81;10.30
64698;BME280;51124;53.394;-6.294;2024-01-15T07:07:04;100812.87;;;12.42;10.30
64698;BME280;51124;53.394;-6.294;2024-01-15T07:09:32;100816.60;;;12.39;10.25
64698;BME280;51124;53.394;-6.294;2024-01-15T07:11:59;100815.76;;;12.86;10.33
64698;BME280;51124;53.394;-6.294;2024-01-15T07:14:26;100822.51;;;12.11;10.38
64698;BME280;51124;53.394;-6.294;2024-01-15T07:16:54;100826.14;;;12.45;10.44
64698;BME280;51124;53.394;-6.294;2024-01-15T07:19:23;100827.82;;;12.50;10.18
64698;BME280;51124;53.394;-6.294;2024-01-15T07:21:50;100825.31;;;12.45;10.35
64698;BME280;51124;53.394;-6.294;2024-01-15T07:24:17;100830.70;;;12.54;10.36
64698;BME280;51124;53.394;-6.294;2024-01-15T07:26:45;100839.98;;;13.15;10.21
64698;BME280;51124;53.394;-6.294;2024-01-15T07:29:12;100843.02;;;12.84;10.29
64698;BME280;51124;53.394;-6.294;2024-01-15T07:31:39;100839.02;;;11.82;10.42
64698;BME280;51124;53.394;-6.294;2024-01-15T07:34:07;100843.11;;;12.63;10.34
64698;BME280;51124;53.394;-6.294;2024-01-15T07:36:34;100852.33;;;13.64;10.11
64698;BME280;51124;53.394;-6.294;2024-01-15T07:39:02;100853.82;;;13.49;10.29
64698;BME280;51124;53.394;-6.294;2024-01-15T07:41:29;100856.32;;;12.99;10.28
64698;BME280;51124;53.394;-6.294;2024-01-15T07:43:57;100858.23;;;13.54;10.06
64698;BME280;51124;53.394;-6.294;2024-01-15T07:46:24;100859.31;;;13.24;10.22
64698;BME280;51124;53.394;-6.294;2024-01-15T07:48:52;100855.10;;;14.22;10.05
64698;BME280;51124;53.394;-6.294;2024-01-15T07:51:19;100855.52;;;14.03;10.12
64698;BME280;51124;53.394;-6.294;2024-01-15T07:53:47;100853.63;;;13.47;9.86
64698;BME280;51124;53.394;-6.294;2024-01-15T07:56:14;100848.71;;;13.66;9.95
64698;BME280;51124;53.394;-6.294;2024-01-15T07:58:41;100857.01;;;14.31;9.45
64698;BME280;51124;53.394;-6.294;2024-01-15T08:01:09;100856.35;;;13.91;9.46
64698;BME280;51124;53.394;-6.294;2024-01-15T08:03:36;100853.00;;;13.68;9.65
64698;BME280;51124;53.394;-6.294;2024-01-15T08:06:04;100866.63;;;16.92;9.64
64698;BME280;51124;53.394;-6.294;2024-01-15T08:08:32;100869.82;;;17.68;9.88
64698;BME280;51124;53.394;-6.294;2024-01-15T08:10:59;100865.99;;;16.45;10.25
64698;BME280;51124;53.394;-6.294;2024-01-15T08:13:28;100866.60;;;14.92;10.35
64698;BME280;51124;53.394;-6.294;2024-01-15T08:15:56;100873.14;;;17.81;10.24
64698;BME280;51124;53.394;-6.294;2024-01-15T08:18:24;100884.90;;;17.78;11.08
64698;BME280;51124;53.394;-6.294;2024-01-15T08:20:51;100875.66;;;18.25;11.27
64698;BME280;51124;53.394;-6.294;2024-01-15T08:23:19;100869.56;;;17.18;11.60
64698;BME280;51124;53.394;-6.294;2024-01-15T08:25:46;100865.99;;;17.71;11.60
64698;BME280;51124;53.394;-6.294;2024-01-15T08:28:14;100863.23;;;17.54;11.92
64698;BME280;51124;53.394;-6.294;2024-01-15T08:30:41;100870.13;;;17.68;11.96
64698;BME280;51124;53.394;-6.294;2024-01-15T08:33:09;100878.78;;;17.42;11.82
64698;BME280;51124;53.394;-6.294;2024-01-15T08:35:36;100885.36;;;17.34;12.10
64698;BME280;51124;53.394;-6.294;2024-01-15T08:38:04;100886.63;;;17.41;12.05
64698;BME280;51124;53.394;-6.294;2024-01-15T08:40:32;100894.11;;;16.81;12.01
64698;BME280;51124;53.394;-6.294;2024-01-15T08:42:59;100890.57;;;16.95;11.74
64698;BME280;51124;53.394;-6.294;2024-01-15T08:45:27;100896.48;;;17.25;11.80
64698;BME280;51124;53.394;-6.294;2024-01-15T08:47:55;100890.12;;;17.60;11.83
64698;BME280;51124;53.394;-6.294;2024-01-15T08:50:23;100896.98;;;17.75;11.63
64698;BME280;51124;53.394;-6.294;2024-01-15T08:52:50;100896.37;;;17.32;11.32
64698;BME280;51124;53.394;-6.294;2024-01-15T08:55:17;100888.38;;;17.73;11.32
64698;BME280;51124;53.394;-6.294;2024-01-15T08:57:45;100886.64;;;18.17;11.19
64698;BME280;51124;53.394;-6.294;2024-01-15T09:00:14;100885.70;;;18.32;11.24
64698;BME280;51124;53.394;-6.294;2024-01-15T09:02:42;100887.52;;;18.52;11.32
64698;BME280;51124;53.394;-6.294;2024-01-15T09:05:10;100889.13;;;18.44;11.22
64698;BME280;51124;53.394;-6.294;2024-01-15T09:07:37;100895.15;;;16.78;11.10
64698;BME280;51124;53.394;-6.294;2024-01-15T09:10:05;100902.78;;;16.73;10.92
64698;BME280;51124;53.394;-6.294;2024-01-15T09:12:33;100909.41;;;16.57;10.50
64698;BME280;51124;53.394;-6.294;2024-01-15T09:15:00;100910.82;;;16.94;10.18
64698;BME280;51124;53.394;-6.294;2024-01-15T09:17:27;100902.87;;;16.97;10.18
64698;BME280;51124;53.394;-6.294;2024-01-15T09:19:55;100898.92;;;17.41;9.80
64698;BME280;51124;53.394;-6.294;2024-01-15T09:22:22;100893.00;;;16.19;9.87
64698;BME280;51124;53.394;-6.294;2024-01-15T09:24:50;100883.80;;;17.21;9.57
64698;BME280;51124;53.394;-6.294;2024-01-15T09:27:17;100889.62;;;16.92;9.51
64698;BME280;51124;53.394;-6.294;2024-01-15T09:29:45;100891.56;;;16.59;9.76
64698;BME280;51124;53.394;-6.294;2024-01-15T09:32:12;100893.12;;;17.08;9.51
64698;BME280;51124;53.394;-6.294;2024-01-15T09:34:39;100903.64;;;17.83;9.28
64698;BME280;51124;53.394;-6.294;2024-01-15T09:37:07;100910.05;;;16.75;9.60
64698;BME280;51124;53.394;-6.294;2024-01-15T09:39:35;100917.41;;;16.91;9.28
64698;BME280;51124;53.394;-6.294;2024-01-15T09:42:03;100922.13;;;17.50;9.28
64698;BME280;51124;53.394;-6.294;2024-01-15T09:44:31;100919.25;;;17.31;9.30
64698;BME280;51124;53.394;-6.294;2024-01-15T09:46:59;100920.13;;;17.24;9.20
64698;BME280;51124;53.394;-6.294;2024-01-15T09:49:27;100918.95;;;17.48;9.25
64698;BME280;51124;53.394;-6.294;2024-01-15T09:51:55;100919.71;;;16.33;9.59
64698;BME280;51124;53.394;-6.294;2024-01-15T09:54:24;100914.42;;;16.81;9.31
64698;BME280;51124;53.394;-6.294;2024-01-15T09:56:51;100911.71;;;16.35;9.38
64698;BME280;51124;53.394;-6.294;2024-01-15T09:59:20;100909.14;;;17.01;9.51
64698;BME280;51124;53.394;-6.294;2024-01-15T10:01:47;100916.00;;;16.94;9.55
64698;BME280;51124;53.394;-6.294;2024-01-15T10:04:17;100919.62;;;16.31;9.65
64698;BME280;51124;53.394;-6.294;2024-01-15T10:06:46;100917.88;;;16.72;9.45
64698;BME280;51124;53.394;-6.294;2024-01-15T10:09:14;100929.50;;;16.50;9.36
64698;BME280;51124;53.394;-6.294;2024-01-15T10:11:42;100934.81;;;16.83;9.08
64698;BME280;51124;53.394;-6.294;2024-01-15T10:14:11;100934.40;;;16.41;9.39
64698;BME280;51124;53.394;-6.294;2024-01-15T10:16:39;100930.73;;;15.61;9.32
64698;BME280;51124;53.394;-6.294;2024-01-15T10:19:07;100928.92;;;15.23;9.65
64698;BME280;51124;53.394;-6.294;2024-01-15T10:21:35;100928.71;;;16.24;9.48
64698;BME280;51124;53.394;-6.294;2024-01-15T10:24:03;100926.18;;;16.09;9.52
64698;BME280;51124;53.394;-6.294;2024-01-15T10:26:32;100926.17;;;15.73;9.67
64698;BME280;51124;53.394;-6.294;2024-01-15T10:29:00;100922.86;;;15.74;9.66
64698;BME280;51124;53.394;-6.294;2024-01-15T10:31:28;100924.11;;;16.06;9.64
64698;BME280;51124;53.394;-6.294;2024-01-15T10:33:57;100925.48;;;16.54;9.71
64698;BME280;51124;53.394;-6.294;2024-01-15T10:36:28;100926.29;;;16.70;9.67
64698;BME280;51124;53.394;-6.294;2024-01-15T10:39:00;100925.42;;;16.28;9.78
64698;BME280;51124;53.394;-6.294;2024-01-15T10:41:27;100925.66;;;16.13;9.71
64698;BME280;51124;53.394;-6.294;2024-01-15T10:43:55;100926.85;;;16.48;9.67
64698;BME280;51124;53.394;-6.294;2024-01-15T10:46:22;100932.62;;;15.84;9.90
64698;BME280;51124;53.394;-6.294;2024-01-15T10:48:50;100934.10;;;17.07;9.90
64698;BME280;51124;53.394;-6.294;2024-01-15T10:51:17;100944.03;;;16.45;9.79
64698;BME280;51124;53.394;-6.294;2024-01-15T10:53:45;100941.24;;;16.74;9.84
64698;BME280;51124;53.394;-6.294;2024-01-15T10:56:14;100938.07;;;16.59;9.73
64698;BME280;51124;53.394;-6.294;2024-01-15T10:58:41;100939.78;;;16.85;9.61
64698;BME280;51124;53.394;-6.294;2024-01-15T11:01:10;100943.15;;;17.04;9.82
64698;BME280;51124;53.394;-6.294;2024-01-15T11:03:38;100938.35;;;16.66;9.91
64698;BME280;51124;53.394;-6.294;2024-01-15T11:06:18;100939.58;;;17.14;9.76
64698;BME280;51124;53.394;-6.294;2024-01-15T11:08:36;100934.16;;;16.20;9.75
64698;BME280;51124;53.394;-6.294;2024-01-15T11:11:04;100933.21;;;16.74;9.63
64698;BME280;51124;53.394;-6.294;2024-01-15T11:13:42;100931.43;;;16.98;9.77
64698;BME280;51124;53.394;-6.294;2024-01-15T11:16:01;100937.84;;;18.59;10.22
64698;BME280;51124;53.394;-6.294;2024-01-15T11:18:31;100936.73;;;18.45;10.43
64698;BME280;51124;53.394;-6.294;2024-01-15T11:21:31;100936.20;;;17.31;10.58
64698;BME280;51124;53.394;-6.294;2024-01-15T11:23:44;100941.54;;;17.94;10.51
64698;BME280;51124;53.394;-6.294;2024-01-15T11:26:02;100937.06;;;19.03;11.07
64698;BME280;51124;53.394;-6.294;2024-01-15T11:28:49;100933.72;;;18.76;11.27
64698;BME280;51124;53.394;-6.294;2024-01-15T11:30:56;100937.69;;;19.28;11.73
64698;BME280;51124;53.394;-6.294;2024-01-15T11:33:34;100941.08;;;18.82;11.63
64698;BME280;51124;53.394;-6.294;2024-01-15T11:35:52;100935.66;;;19.55;11.66
64698;BME280;51124;53.394;-6.294;2024-01-15T11:38:35;100939.20;;;19.03;11.94
64698;BME280;51124;53.394;-6.294;2024-01-15T11:40:52;100938.76;;;19.24;11.90
64698;BME280;51124;53.394;-6.294;2024-01-15T11:43:20;100933.18;;;18.64;12.02
64698;BME280;51124;53.394;-6.294;2024-01-15T11:45:48;100931.25;;;18.81;12.09
64698;BME280;51124;53.394;-6.294;2024-01-15T11:48:19;100935.46;;;19.16;11.98
64698;BME280;51124;53.394;-6.294;2024-01-15T11:50:48;100932.63;;;19.67;11.87
64698;BME280;51124;53.394;-6.294;2024-01-15T11:53:27;100930.31;;;19.66;11.86
64698;BME280;51124;53.394;-6.294;2024-01-15T11:55:46;100924.18;;;19.27;12.05
64698;BME280;51124;53.394;-6.294;2024-01-15T11:58:14;100923.87;;;19.67;12.02
64698;BME280;51124;53.394;-6.294;2024-01-15T12:00:43;100915.81;;;19.35;12.06
64698;BME280;51124;53.394;-6.294;2024-01-15T12:03:11;100915.35;;;18.70;12.10
64698;BME280;51124;53.394;-6.294;2024-01-15T12:05:39;100917.20;;;18.56;12.12
64698;BME280;51124;53.394;-6.294;2024-01-15T12:08:07;100916.46;;;18.40;12.26
64698;BME280;51124;53.394;-6.294;2024-01-15T12:10:35;100918.45;;;18.76;12.15
64698;BME280;51124;53.394;-6.294;2024-01-15T12:13:09;100918.84;;;18.72;12.00
64698;BME280;51124;53.394;-6.294;2024-01-15T12:15:37;100920.00;;;17.81;11.77
64698;BME280;51124;53.394;-6.294;2024-01-15T12:18:05;100919.74;;;16.55;11.08
64698;BME280;51124;53.394;-6.294;2024-01-15T12:20:34;100911.46;;;16.91;11.00
64698;BME280;51124;53.394;-6.294;2024-01-15T12:23:02;100910.75;;;16.94;10.65
64698;BME280;51124;53.394;-6.294;2024-01-15T12:25:31;100909.90;;;16.84;10.46
64698;BME280;51124;53.394;-6.294;2024-01-15T12:28:00;100911.32;;;16.98;10.39
64698;BME280;51124;53.394;-6.294;2024-01-15T12:30:28;100915.50;;;16.45;10.13
64698;BME280;51124;53.394;-6.294;2024-01-15T12:32:56;100908.23;;;17.03;9.66
64698;BME280;51124;53.394;-6.294;2024-01-15T12:35:24;100912.91;;;15.69;9.88
64698;BME280;51124;53.394;-6.294;2024-01-15T12:37:51;100905.75;;;16.33;9.79
64698;BME280;51124;53.394;-6.294;2024-01-15T12:40:21;100904.50;;;16.80;9.65
64698;BME280;51124;53.394;-6.294;2024-01-15T12:42:49;100902.73;;;16.85;9.52
64698;BME280;51124;53.394;-6.294;2024-01-15T12:45:17;100899.39;;;16.29;9.42